sensor_id;sensor_type;location;lat;lon;timestamp;temperature;humidity
59067;DHT22;44854;50.838;4.438;2022-09-13T05:32:29;19.10;99.90
59067;DHT22;44854;50.838;4.438;2022-09-13T05:34:59;19.20;99.90
59067;DHT22;44854;50.838;4.438;2022-09-13T05:37:24;19.30;99.90
59067;DHT22;44854;50.838;4.438;2022-09-13T05:39:50;19.30;99.90
59067;DHT22;44854;50.838;4.438;2022-09-13T05:42:16;19.60;99.90
59067;DHT22;44854;50.838;4.438;2022-09-13T05:44:41;19.50;99.90
59067;DHT22;44854;50.838;4.438;2022-09-13T05:47:07;19.40;99.90
59067;DHT22;44854;50.838;4.438;2022-09-13T05:49:32;19.40;99.90
59067;DHT22;44854;50.838;4.438;2022-09-13T05:51:58;19.50;99.90
59067;DHT22;44854;50.838;4.438;2022-09-13T05:54:24;19.50;99.90
59067;DHT22;44854;50.838;4.438;2022-09-13T05:56:49;19.50;99.90
59067;DHT22;44854;50.838;4.438;2022-09-13T05:59:16;19.40;99.90
59067;DHT22;44854;50.838;4.438;2022-09-13T06:01:42;19.40;99.90
59067;DHT22;44854;50.838;4.438;2022-09-13T06:04:07;19.30;99.90
59067;DHT22;44854;50.838;4.438;2022-09-13T06:06:33;19.40;99.90
59067;DHT22;44854;50.838;4.438;2022-09-13T06:08:59;19.30;99.90
59067;DHT22;44854;50.838;4.438;2022-09-13T06:11:25;19.30;99.90
59067;DHT22;44854;50.838;4.438;2022-09-13T06:13:50;19.30;99.90
59067;DHT22;44854;50.838;4.438;2022-09-13T06:16:17;19.20;99.90
59067;DHT22;44854;50.838;4.438;2022-09-13T06:18:43;19.30;99.90
59067;DHT22;44854;50.838;4.438;2022-09-13T06:21:13;19.30;99.90
59067;DHT22;44854;50.838;4.438;2022-09-13T06:23:45;19.40;99.90
59067;DHT22;44854;50.838;4.438;2022-09-13T06:26:12;19.50;99.90
59067;DHT22;44854;50.838;4.438;2022-09-13T06:28:38;19.40;99.90
59067;DHT22;44854;50.838;4.438;2022-09-13T06:31:05;19.40;99.90
59067;DHT22;44854;50.838;4.438;2022-09-13T06:33:31;19.40;99.90
59067;DHT22;44854;50.838;4.438;2022-09-13T06:36:05;19.60;99.90
59067;DHT22;44854;50.838;4.438;2022-09-13T06:38:31;19.60;99.90
59067;DHT22;44854;50.838;4.438;2022-09-13T06:41:04;19.50;99.90
59067;DHT22;44854;50.838;4.438;2022-09-13T06:43:30;19.60;99.90
59067;DHT22;44854;50.838;4.438;2022-09-13T06:46:06;19.70;99.90
59067;DHT22;44854;50.838;4.438;2022-09-13T06:48:33;19.70;99.90
59067;DHT22;44854;50.838;4.438;2022-09-13T06:51:00;19.80;99.90
59067;DHT22;44854;50.838;4.438;2022-09-13T06:53:26;19.70;99.90
59067;DHT22;44854;50.838;4.438;2022-09-13T06:56:29;19.70;99.90
59067;DHT22;44854;50.838;4.438;2022-09-13T06:58:47;19.70;99.90
59067;DHT22;44854;50.838;4.438;2022-09-13T07:01:17;19.80;99.90
59067;DHT22;44854;50.838;4.438;2022-09-13T07:03:44;19.90;99.90
59067;DHT22;44854;50.838;4.438;2022-09-13T07:06:11;19.80;99.90
59067;DHT22;44854;50.838;4.438;2022-09-13T07:08:36;19.80;99.90
59067;DHT22;44854;50.838;4.438;2022-09-13T07:11:02;19.80;99.90
59067;DHT22;44854;50.838;4.438;2022-09-13T07:13:27;19.90;99.90
59067;DHT22;44854;50.838;4.438;2022-09-13T07:15:53;20.10;99.90
59067;DHT22;44854;50.838;4.438;2022-09-13T07:18:18;20.20;99.90
59067;DHT22;44854;50.838;4.438;2022-09-13T07:20:44;20.20;99.90
59067;DHT22;44854;50.838;4.438;2022-09-13T07:23:09;20.40;99.90
59067;DHT22;44854;50.838;4.438;2022-09-13T07:25:35;20.50;99.90
59067;DHT22;44854;50.838;4.438;2022-09-13T07:28:00;20.50;99.90
59067;DHT22;44854;50.838;4.438;2022-09-13T07:30:26;20.50;99.90
59067;DHT22;44854;50.838;4.438;2022-09-13T07:32:51;20.70;99.90
59067;DHT22;44854;50.838;4.438;2022-09-13T07:35:17;20.80;99.90
59067;DHT22;44854;50.838;4.438;2022-09-13T07:37:43;20.80;99.90
59067;DHT22;44854;50.838;4.438;2022-09-13T07:40:10;20.80;99.90
59067;DHT22;44854;50.838;4.438;2022-09-13T07:42:36;20.80;99.90
59067;DHT22;44854;50.838;4.438;2022-09-13T07:45:02;20.80;99.90
59067;DHT22;44854;50.838;4.438;2022-09-13T07:47:27;20.80;99.90
59067;DHT22;44854;50.838;4.438;2022-09-13T07:49:53;21.10;99.90
59067;DHT22;44854;50.838;4.438;2022-09-13T07:52:18;21.10;99.90
59067;DHT22;44854;50.838;4.438;2022-09-13T07:54:44;21.10;99.90
59067;DHT22;44854;50.838;4.438;2022-09-13T07:57:11;21.20;99.90
59067;DHT22;44854;50.838;4.438;2022-09-13T07:59:40;21.40;99.90
59067;DHT22;44854;50.838;4.438;2022-09-13T08:02:07;21.50;99.90
59067;DHT22;44854;50.838;4.438;2022-09-13T08:04:33;21.60;99.90
59067;DHT22;44854;50.838;4.438;2022-09-13T08:06:58;21.50;99.90
59067;DHT22;44854;50.838;4.438;2022-09-13T08:09:24;21.50;99.90
59067;DHT22;44854;50.838;4.438;2022-09-13T08:11:50;21.60;99.90
59067;DHT22;44854;50.838;4.438;2022-09-13T08:14:20;21.60;99.90
59067;DHT22;44854;50.838;4.438;2022-09-13T08:16:46;21.80;99.90
59067;DHT22;44854;50.838;4.438;2022-09-13T08:19:13;21.90;99.90
59067;DHT22;44854;50.838;4.438;2022-09-13T08:21:39;22.10;99.90
59067;DHT22;44854;50.838;4.438;2022-09-13T08:24:06;22.10;99.90
59067;DHT22;44854;50.838;4.438;2022-09-13T08:26:33;22.10;99.90
59067;DHT22;44854;50.838;4.438;2022-09-13T08:29:03;22.20;99.90
59067;DHT22;44854;50.838;4.438;2022-09-13T08:31:29;22.30;99.90
59067;DHT22;44854;50.838;4.438;2022-09-13T08:33:55;22.40;99.90
59067;DHT22;44854;50.838;4.438;2022-09-13T08:36:21;22.50;99.90
59067;DHT22;44854;50.838;4.438;2022-09-13T08:38:58;22.60;99.90
59067;DHT22;44854;50.838;4.438;2022-09-13T08:46:54;22.80;99.90
59067;DHT22;44854;50.838;4.438;2022-09-13T08:51:42;23.10;99.90
59067;DHT22;44854;50.838;4.438;2022-09-13T08:54:12;23.20;99.90
59067;DHT22;44854;50.838;4.438;2022-09-13T09:06:47;23.50;99.90
59067;DHT22;44854;50.838;4.438;2022-09-13T09:09:16;23.60;99.90
59067;DHT22;44854;50.838;4.438;2022-09-13T09:11:53;23.70;99.90
59067;DHT22;44854;50.838;4.438;2022-09-13T09:14:25;23.90;99.90
59067;DHT22;44854;50.838;4.438;2022-09-13T09:16:54;23.90;99.90
59067;DHT22;44854;50.838;4.438;2022-09-13T09:19:32;23.90;99.90
59067;DHT22;44854;50.838;4.438;2022-09-13T09:22:00;23.80;99.90
59067;DHT22;44854;50.838;4.438;2022-09-13T09:24:28;23.90;99.90
59067;DHT22;44854;50.838;4.438;2022-09-13T09:26:57;24.10;99.90
59067;DHT22;44854;50.838;4.438;2022-09-13T09:29:25;24.30;99.90
59067;DHT22;44854;50.838;4.438;2022-09-13T09:37:09;24.70;99.90
59067;DHT22;44854;50.838;4.438;2022-09-13T09:39:39;24.80;99.90
59067;DHT22;44854;50.838;4.438;2022-09-13T09:42:14;25.00;99.90
59067;DHT22;44854;50.838;4.438;2022-09-13T09:44:42;25.10;99.90
59067;DHT22;44854;50.838;4.438;2022-09-13T09:47:17;25.10;99.90
59067;DHT22;44854;50.838;4.438;2022-09-13T09:55:26;25.20;99.90
59067;DHT22;44854;50.838;4.438;2022-09-13T10:00:17;25.00;99.90
59067;DHT22;44854;50.838;4.438;2022-09-13T10:02:45;25.00;99.90
59067;DHT22;44854;50.838;4.438;2022-09-13T10:05:12;25.00;99.90
59067;DHT22;44854;50.838;4.438;2022-09-13T10:07:38;25.00;99.90
59067;DHT22;44854;50.838;4.438;2022-09-13T10:10:07;25.00;99.90
59067;DHT22;44854;50.838;4.438;2022-09-13T10:12:34;25.10;99.90
59067;DHT22;44854;50.838;4.438;2022-09-13T10:17:30;25.00;99.90
59067;DHT22;44854;50.838;4.438;2022-09-13T10:22:24;24.80;99.90
59067;DHT22;44854;50.838;4.438;2022-09-13T10:24:49;24.50;99.90
59067;DHT22;44854;50.838;4.438;2022-09-13T10:29:59;24.90;99.90
59067;DHT22;44854;50.838;4.438;2022-09-13T10:32:29;25.10;99.90
59067;DHT22;44854;50.838;4.438;2022-09-13T10:34:57;25.10;99.90
59067;DHT22;44854;50.838;4.438;2022-09-13T10:37:27;25.20;99.90
59067;DHT22;44854;50.838;4.438;2022-09-13T10:42:24;25.50;99.90
59067;DHT22;44854;50.838;4.438;2022-09-13T10:44:52;25.60;99.90
59067;DHT22;44854;50.838;4.438;2022-09-13T10:47:22;25.70;99.90
59067;DHT22;44854;50.838;4.438;2022-09-13T10:49:50;25.70;99.90
59067;DHT22;44854;50.838;4.438;2022-09-13T10:52:23;25.60;99.90
59067;DHT22;44854;50.838;4.438;2022-09-13T10:54:49;25.50;99.90
59067;DHT22;44854;50.838;4.438;2022-09-13T10:57:31;25.70;99.90
59067;DHT22;44854;50.838;4.438;2022-09-13T10:59:57;25.70;99.90
59067;DHT22;44854;50.838;4.438;2022-09-13T11:02:30;25.70;99.90
59067;DHT22;44854;50.838;4.438;2022-09-13T11:10:11;25.60;99.90
59067;DHT22;44854;50.838;4.438;2022-09-13T11:12:49;25.70;99.90
59067;DHT22;44854;50.838;4.438;2022-09-13T11:28:45;25.70;99.90
59067;DHT22;44854;50.838;4.438;2022-09-13T11:31:31;25.70;99.90
59067;DHT22;44854;50.838;4.438;2022-09-13T11:39:30;25.90;99.90
59067;DHT22;44854;50.838;4.438;2022-09-13T11:57:24;25.80;99.90
59067;DHT22;44854;50.838;4.438;2022-09-13T11:59:52;26.00;99.90
59067;DHT22;44854;50.838;4.438;2022-09-13T12:02:25;26.00;99.90
59067;DHT22;44854;50.838;4.438;2022-09-13T12:04:56;25.90;99.90
59067;DHT22;44854;50.838;4.438;2022-09-13T12:09:56;25.70;99.90
59067;DHT22;44854;50.838;4.438;2022-09-13T12:12:25;25.70;99.90
59067;DHT22;44854;50.838;4.438;2022-09-13T12:14:53;25.80;99.90
59067;DHT22;44854;50.838;4.438;2022-09-13T12:17:30;25.70;99.90
59067;DHT22;44854;50.838;4.438;2022-09-13T12:19:58;25.80;99.90
59067;DHT22;44854;50.838;4.438;2022-09-13T12:22:26;25.80;99.90
59067;DHT22;44854;50.838;4.438;2022-09-13T12:24:54;25.80;99.90
59067;DHT22;44854;50.838;4.438;2022-09-13T12:30:22;25.90;99.90
59067;DHT22;44854;50.838;4.438;2022-09-13T12:32:48;26.20;99.90
59067;DHT22;44854;50.838;4.438;2022-09-13T12:51:27;25.70;99.90
59067;DHT22;44854;50.838;4.438;2022-09-13T12:56:27;25.40;99.90
59067;DHT22;44854;50.838;4.438;2022-09-13T13:01:32;25.10;99.90
59067;DHT22;44854;50.838;4.438;2022-09-13T13:04:00;25.10;99.90
59067;DHT22;44854;50.838;4.438;2022-09-13T13:06:29;25.10;99.90
59067;DHT22;44854;50.838;4.438;2022-09-13T13:08:57;25.20;99.90
59067;DHT22;44854;50.838;4.438;2022-09-13T13:11:39;25.00;99.90
59067;DHT22;44854;50.838;4.438;2022-09-13T13:14:10;25.10;99.90
59067;DHT22;44854;50.838;4.438;2022-09-13T13:16:47;24.90;99.90
59067;DHT22;44854;50.838;4.438;2022-09-13T13:19:27;24.70;99.90
59067;DHT22;44854;50.838;4.438;2022-09-13T13:21:53;24.80;99.90
59067;DHT22;44854;50.838;4.438;2022-09-13T13:29:12;24.70;99.90
59067;DHT22;44854;50.838;4.438;2022-09-13T13:31:40;24.70;99.90
59067;DHT22;44854;50.838;4.438;2022-09-13T13:39:06;24.70;99.90
59067;DHT22;44854;50.838;4.438;2022-09-13T13:46:39;24.80;99.90
59067;DHT22;44854;50.838;4.438;2022-09-13T13:52:03;24.50;99.90
59067;DHT22;44854;50.838;4.438;2022-09-13T14:10:37;24.40;99.90
59067;DHT22;44854;50.838;4.438;2022-09-13T14:13:41;24.40;99.90
59067;DHT22;44854;50.838;4.438;2022-09-13T14:18:46;24.20;99.90
59067;DHT22;44854;50.838;4.438;2022-09-13T14:23:46;24.10;99.90
59067;DHT22;44854;50.838;4.438;2022-09-13T14:26:12;23.90;99.90
59067;DHT22;44854;50.838;4.438;2022-09-13T14:28:38;24.10;99.90
59067;DHT22;44854;50.838;4.438;2022-09-13T14:31:04;24.10;99.90
59067;DHT22;44854;50.838;4.438;2022-09-13T14:33:31;24.10;99.90
59067;DHT22;44854;50.838;4.438;2022-09-13T14:36:15;24.10;99.90
59067;DHT22;44854;50.838;4.438;2022-09-13T14:38:45;24.00;99.90
59067;DHT22;44854;50.838;4.438;2022-09-13T14:41:16;24.00;99.90
59067;DHT22;44854;50.838;4.438;2022-09-13T14:43:42;23.90;99.90
59067;DHT22;44854;50.838;4.438;2022-09-13T14:46:14;23.80;99.90
59067;DHT22;44854;50.838;4.438;2022-09-13T14:54:00;23.90;99.90
59067;DHT22;44854;50.838;4.438;2022-09-13T14:56:35;23.90;99.90
59067;DHT22;44854;50.838;4.438;2022-09-13T14:59:03;23.70;99.90
59067;DHT22;44854;50.838;4.438;2022-09-13T15:01:33;23.50;99.90
59067;DHT22;44854;50.838;4.438;2022-09-13T15:03:59;23.40;99.90
59067;DHT22;44854;50.838;4.438;2022-09-13T15:06:27;23.50;99.90
59067;DHT22;44854;50.838;4.438;2022-09-13T15:08:55;23.50;99.90
59067;DHT22;44854;50.838;4.438;2022-09-13T15:11:32;23.60;99.90
59067;DHT22;44854;50.838;4.438;2022-09-13T15:17:11;23.70;99.90
59067;DHT22;44854;50.838;4.438;2022-09-13T15:22:27;23.60;99.90
59067;DHT22;44854;50.838;4.438;2022-09-13T15:24:54;23.50;99.90
59067;DHT22;44854;50.838;4.438;2022-09-13T15:29:51;23.50;99.90
59067;DHT22;44854;50.838;4.438;2022-09-13T15:32:21;23.60;99.90
59067;DHT22;44854;50.838;4.438;2022-09-13T15:34:47;23.30;99.90
59067;DHT22;44854;50.838;4.438;2022-09-13T15:37:13;23.20;99.90
59067;DHT22;44854;50.838;4.438;2022-09-13T15:39:49;23.20;99.90
59067;DHT22;44854;50.838;4.438;2022-09-13T15:42:17;23.20;99.90
59067;DHT22;44854;50.838;4.438;2022-09-13T15:44:42;23.10;99.90
59067;DHT22;44854;50.838;4.438;2022-09-13T15:47:14;23.10;99.90
59067;DHT22;44854;50.838;4.438;2022-09-13T15:49:40;23.10;99.90
59067;DHT22;44854;50.838;4.438;2022-09-13T15:52:11;23.20;99.90
59067;DHT22;44854;50.838;4.438;2022-09-13T15:54:37;23.20;99.90
59067;DHT22;44854;50.838;4.438;2022-09-13T15:57:12;23.30;99.90
59067;DHT22;44854;50.838;4.438;2022-09-13T15:59:39;23.40;99.90
59067;DHT22;44854;50.838;4.438;2022-09-13T16:02:19;23.50;99.90
59067;DHT22;44854;50.838;4.438;2022-09-13T16:04:45;23.50;99.90
59067;DHT22;44854;50.838;4.438;2022-09-13T16:07:11;23.50;99.90
59067;DHT22;44854;50.838;4.438;2022-09-13T16:09:36;23.60;99.90
59067;DHT22;44854;50.838;4.438;2022-09-13T16:12:03;23.60;99.90
59067;DHT22;44854;50.838;4.438;2022-09-13T16:14:28;23.50;99.90
59067;DHT22;44854;50.838;4.438;2022-09-13T16:16:54;23.30;99.90
59067;DHT22;44854;50.838;4.438;2022-09-13T16:19:20;23.30;99.90
59067;DHT22;44854;50.838;4.438;2022-09-13T16:21:46;23.30;99.90
59067;DHT22;44854;50.838;4.438;2022-09-13T16:24:12;23.20;99.90
59067;DHT22;44854;50.838;4.438;2022-09-13T16:26:39;23.30;99.90
59067;DHT22;44854;50.838;4.438;2022-09-13T16:29:05;23.40;99.90
59067;DHT22;44854;50.838;4.438;2022-09-13T16:31:31;23.20;99.90
59067;DHT22;44854;50.838;4.438;2022-09-13T16:33:56;23.20;99.90
59067;DHT22;44854;50.838;4.438;2022-09-13T16:36:22;23.00;99.90
59067;DHT22;44854;50.838;4.438;2022-09-13T16:38:47;23.00;99.90
59067;DHT22;44854;50.838;4.438;2022-09-13T16:41:13;22.90;99.90
59067;DHT22;44854;50.838;4.438;2022-09-13T16:43:39;22.90;99.90
59067;DHT22;44854;50.838;4.438;2022-09-13T16:46:05;23.00;99.90
59067;DHT22;44854;50.838;4.438;2022-09-13T16:48:31;22.90;99.90
59067;DHT22;44854;50.838;4.438;2022-09-13T16:51:07;22.80;99.90
59067;DHT22;44854;50.838;4.438;2022-09-13T16:53:33;22.70;99.90
59067;DHT22;44854;50.838;4.438;2022-09-13T16:56:06;22.70;99.90
59067;DHT22;44854;50.838;4.438;2022-09-13T16:58:34;22.60;99.90
59067;DHT22;44854;50.838;4.438;2022-09-13T17:01:02;22.50;99.90
59067;DHT22;44854;50.838;4.438;2022-09-13T17:03:27;22.50;99.90
59067;DHT22;44854;50.838;4.438;2022-09-13T17:05:59;22.50;99.90
59067;DHT22;44854;50.838;4.438;2022-09-13T17:08:25;22.40;99.90
59067;DHT22;44854;50.838;4.438;2022-09-13T17:10:51;22.30;99.90
59067;DHT22;44854;50.838;4.438;2022-09-13T17:13:17;22.30;99.90
59067;DHT22;44854;50.838;4.438;2022-09-13T17:15:43;22.40;99.90
59067;DHT22;44854;50.838;4.438;2022-09-13T17:18:09;22.20;99.90
59067;DHT22;44854;50.838;4.438;2022-09-13T17:20:35;22.10;99.90
59067;DHT22;44854;50.838;4.438;2022-09-13T17:23:00;22.10;99.90
59067;DHT22;44854;50.838;4.438;2022-09-13T17:25:26;22.00;99.90
59067;DHT22;44854;50.838;4.438;2022-09-13T17:27:51;21.90;99.90
59067;DHT22;44854;50.838;4.438;2022-09-13T17:30:17;21.90;99.90
59067;DHT22;44854;50.838;4.438;2022-09-13T17:32:43;21.80;99.90
59067;DHT22;44854;50.838;4.438;2022-09-13T17:35:08;21.70;99.90
59067;DHT22;44854;50.838;4.438;2022-09-13T17:37:36;21.60;99.90
59067;DHT22;44854;50.838;4.438;2022-09-13T17:40:01;21.60;99.90
59067;DHT22;44854;50.838;4.438;2022-09-13T17:42:27;21.60;99.90
59067;DHT22;44854;50.838;4.438;2022-09-13T17:44:52;21.70;99.90
59067;DHT22;44854;50.838;4.438;2022-09-13T17:47:18;21.70;99.90
59067;DHT22;44854;50.838;4.438;2022-09-13T17:49:43;21.60;99.90
59067;DHT22;44854;50.838;4.438;2022-09-13T17:55:06;21.40;99.90
59067;DHT22;44854;50.838;4.438;2022-09-13T17:57:46;21.30;99.90
59067;DHT22;44854;50.838;4.438;2022-09-13T18:00:15;21.30;99.90
59067;DHT22;44854;50.838;4.438;2022-09-13T18:02:43;21.30;99.90
59067;DHT22;44854;50.838;4.438;2022-09-13T18:05:09;21.20;99.90
59067;DHT22;44854;50.838;4.438;2022-09-13T18:07:34;21.00;99.90
59067;DHT22;44854;50.838;4.438;2022-09-13T18:10:00;21.00;99.90
59067;DHT22;44854;50.838;4.438;2022-09-13T18:12:26;21.10;99.90
59067;DHT22;44854;50.838;4.438;2022-09-13T18:14:53;21.20;99.90
59067;DHT22;44854;50.838;4.438;2022-09-13T18:17:18;21.20;99.90
59067;DHT22;44854;50.838;4.438;2022-09-13T18:19:44;21.20;99.90
59067;DHT22;44854;50.838;4.438;2022-09-13T18:22:12;21.20;99.90
59067;DHT22;44854;50.838;4.438;2022-09-13T18:24:38;21.20;99.90
59067;DHT22;44854;50.838;4.438;2022-09-13T18:27:05;21.10;99.90
59067;DHT22;44854;50.838;4.438;2022-09-13T18:29:31;21.00;99.90
59067;DHT22;44854;50.838;4.438;2022-09-13T18:31:57;21.00;99.90
59067;DHT22;44854;50.838;4.438;2022-09-13T18:34:23;20.90;99.90
59067;DHT22;44854;50.838;4.438;2022-09-13T18:36:48;20.80;99.90
59067;DHT22;44854;50.838;4.438;2022-09-13T18:39:20;20.90;99.90
59067;DHT22;44854;50.838;4.438;2022-09-13T18:41:46;20.90;99.90
59067;DHT22;44854;50.838;4.438;2022-09-13T18:44:13;20.80;99.90
59067;DHT22;44854;50.838;4.438;2022-09-13T18:46:39;20.90;99.90
59067;DHT22;44854;50.838;4.438;2022-09-13T18:49:05;20.80;99.90
59067;DHT22;44854;50.838;4.438;2022-09-13T18:51:32;20.80;99.90
59067;DHT22;44854;50.838;4.438;2022-09-13T18:53:59;20.80;99.90
59067;DHT22;44854;50.838;4.438;2022-09-13T18:56:25;20.70;99.90
59067;DHT22;44854;50.838;4.438;2022-09-13T18:58:51;20.70;99.90
59067;DHT22;44854;50.838;4.438;2022-09-13T19:01:18;20.60;99.90
59067;DHT22;44854;50.838;4.438;2022-09-13T19:03:48;20.70;99.90
59067;DHT22;44854;50.838;4.438;2022-09-13T19:06:15;20.80;99.90
59067;DHT22;44854;50.838;4.438;2022-09-13T19:08:41;20.70;99.90
59067;DHT22;44854;50.838;4.438;2022-09-13T19:11:07;20.70;99.90
59067;DHT22;44854;50.838;4.438;2022-09-13T19:13:33;20.70;99.90
59067;DHT22;44854;50.838;4.438;2022-09-13T19:15:59;20.70;99.90
59067;DHT22;44854;50.838;4.438;2022-09-13T19:18:25;20.90;99.90
59067;DHT22;44854;50.838;4.438;2022-09-13T19:20:51;20.70;99.90
59067;DHT22;44854;50.838;4.438;2022-09-13T19:23:17;20.50;99.90
59067;DHT22;44854;50.838;4.438;2022-09-13T19:25:43;20.50;99.90
59067;DHT22;44854;50.838;4.438;2022-09-13T19:28:08;20.40;99.90
59067;DHT22;44854;50.838;4.438;2022-09-13T19:30:34;20.50;99.90
59067;DHT22;44854;50.838;4.438;2022-09-13T19:32:59;20.60;99.90
59067;DHT22;44854;50.838;4.438;2022-09-13T19:35:25;20.60;99.90
59067;DHT22;44854;50.838;4.438;2022-09-13T19:37:51;20.60;99.90
59067;DHT22;44854;50.838;4.438;2022-09-13T19:40:17;20.70;99.90
59067;DHT22;44854;50.838;4.438;2022-09-13T19:42:42;20.60;99.90
59067;DHT22;44854;50.838;4.438;2022-09-13T19:45:08;20.60;99.90
59067;DHT22;44854;50.838;4.438;2022-09-13T19:47:35;20.50;99.90
59067;DHT22;44854;50.838;4.438;2022-09-13T19:50:03;20.50;99.90
59067;DHT22;44854;50.838;4.438;2022-09-13T19:52:29;20.60;99.90
59067;DHT22;44854;50.838;4.438;2022-09-13T19:54:55;20.50;99.90
59067;DHT22;44854;50.838;4.438;2022-09-13T19:57:23;20.50;99.90
59067;DHT22;44854;50.838;4.438;2022-09-13T19:59:48;20.50;99.90
59067;DHT22;44854;50.838;4.438;2022-09-13T20:02:14;20.30;99.90
59067;DHT22;44854;50.838;4.438;2022-09-13T20:04:39;20.40;99.90
59067;DHT22;44854;50.838;4.438;2022-09-13T20:07:05;20.30;99.90
59067;DHT22;44854;50.838;4.438;2022-09-13T20:09:36;20.40;99.90
59067;DHT22;44854;50.838;4.438;2022-09-13T20:12:02;20.40;99.90
59067;DHT22;44854;50.838;4.438;2022-09-13T20:14:31;20.40;99.90
59067;DHT22;44854;50.838;4.438;2022-09-13T20:16:57;20.30;99.90
59067;DHT22;44854;50.838;4.438;2022-09-13T20:19:23;20.20;99.90
59067;DHT22;44854;50.838;4.438;2022-09-13T20:21:48;20.20;99.90
59067;DHT22;44854;50.838;4.438;2022-09-13T20:24:15;20.10;99.90
59067;DHT22;44854;50.838;4.438;2022-09-13T20:26:41;20.10;99.90
59067;DHT22;44854;50.838;4.438;2022-09-13T20:29:06;20.30;99.90
59067;DHT22;44854;50.838;4.438;2022-09-13T20:31:33;20.30;99.90
59067;DHT22;44854;50.838;4.438;2022-09-13T20:34:00;20.30;99.90
59067;DHT22;44854;50.838;4.438;2022-09-13T20:36:27;20.30;99.90
59067;DHT22;44854;50.838;4.438;2022-09-13T20:38:53;20.30;99.90
59067;DHT22;44854;50.838;4.438;2022-09-13T20:41:21;20.20;99.90
59067;DHT22;44854;50.838;4.438;2022-09-13T20:43:47;20.30;99.90
59067;DHT22;44854;50.838;4.438;2022-09-13T20:46:13;20.40;99.90
59067;DHT22;44854;50.838;4.438;2022-09-13T20:48:39;20.40;99.90
59067;DHT22;44854;50.838;4.438;2022-09-13T20:51:08;20.40;99.90
59067;DHT22;44854;50.838;4.438;2022-09-13T20:53:35;20.50;99.90
59067;DHT22;44854;50.838;4.438;2022-09-13T20:56:12;20.40;99.90
59067;DHT22;44854;50.838;4.438;2022-09-13T20:58:38;20.50;99.90
59067;DHT22;44854;50.838;4.438;2022-09-13T21:01:08;20.50;99.90
59067;DHT22;44854;50.838;4.438;2022-09-13T21:03:37;20.50;99.90
59067;DHT22;44854;50.838;4.438;2022-09-13T21:06:03;20.50;99.90
59067;DHT22;44854;50.838;4.438;2022-09-13T21:08:29;20.40;99.90
59067;DHT22;44854;50.838;4.438;2022-09-13T21:11:13;20.30;99.90
59067;DHT22;44854;50.838;4.438;2022-09-13T21:16:13;20.20;99.90
59067;DHT22;44854;50.838;4.438;2022-09-13T21:18:39;20.20;99.90
59067;DHT22;44854;50.838;4.438;2022-09-13T21:21:05;20.10;99.90
59067;DHT22;44854;50.838;4.438;2022-09-13T21:23:32;20.10;99.90
59067;DHT22;44854;50.838;4.438;2022-09-13T21:26:05;20.20;99.90
59067;DHT22;44854;50.838;4.438;2022-09-13T21:28:34;20.30;99.90
59067;DHT22;44854;50.838;4.438;2022-09-13T21:31:01;20.30;99.90
59067;DHT22;44854;50.838;4.438;2022-09-13T21:33:26;20.40;99.90
59067;DHT22;44854;50.838;4.438;2022-09-13T21:35:56;20.40;99.90
59067;DHT22;44854;50.838;4.438;2022-09-13T21:38:23;20.40;99.90
59067;DHT22;44854;50.838;4.438;2022-09-13T21:40:55;20.40;99.90
59067;DHT22;44854;50.838;4.438;2022-09-13T21:43:21;20.40;99.90
59067;DHT22;44854;50.838;4.438;2022-09-13T21:45:47;20.40;99.90
59067;DHT22;44854;50.838;4.438;2022-09-13T21:48:12;20.40;99.90
59067;DHT22;44854;50.838;4.438;2022-09-13T21:50:39;20.50;99.90
59067;DHT22;44854;50.838;4.438;2022-09-13T21:53:05;20.20;99.90
59067;DHT22;44854;50.838;4.438;2022-09-13T21:55:34;20.20;99.90
59067;DHT22;44854;50.838;4.438;2022-09-13T21:58:03;20.20;99.90
